Lake Clark National Park, AK

3:35 PM AKDT on April 26, 2015 (GMT -0800)
Port Alsworth | | Change Station
CLOSE
Current Station
Airport
Location: Port Alsworth,
Elevation: 279 ft
Nearby Weather Stations

Elev 279 ft 60.20 °N, 154.32 °W | Updated 2 hours ago

Clear
Clear
55 °F
Feels Like 55 °F
N
6
Wind Variable Wind from ENE

Today
High -- | Low -- °F
--% Chance of Precip.
Yesterday
High -- | Low -- °F
Precip. -- in
6:28 AM 10:05 PM
First Quarter, 59% visible
Pressure 29.63 in
Visibility 40.0 miles
Clouds Clear
Dew Point 43 °F
Humidity 63%
Rainfall 0.00 in
Snow Depth Not available.
UV 5 out of 12
Pollen Not available.
Air Quality Not available.
Flu Activity Sporadic
METAR PALJ 262057Z 06005KT 40SM CLR 13/06 A2963 RMK NOSPECI ESTIMATE PASS OPEN

More Conditions Fewer Conditions

Pressure 29.63 in
Visibility 40.0 miles
Clouds Clear
Dew Point 43 °F
Humidity 63%
Rainfall 0.00 in
Snow Depth Not available.
UV 5 out of 12
Pollen Not available.
Air Quality Not available.
Flu Activity Sporadic
METAR PALJ 262057Z 06005KT 40SM CLR 13/06 A2963 RMK NOSPECI ESTIMATE PASS OPEN

More Conditions Fewer Conditions

10-Day Weather Forecast

Almanac

Astronomy

Apr. 26, 2015 Rise Set
Actual Time
Civil Twilight
Nautical Twilight
Astronomical Twilight
Moon
Length of Visible Light
Length of Day
Tomorrow will be .
, % of the Moon is Illuminated

Today's Extremes

State Highs State Lows

Community

WunderPhotos

Upload Photos

1,817,160 photos uploaded!

WunderBlogs® & News

Nearby

Air Quality

  Air Quality AQ Index Pollutant
Not available.

Snow Depth

Station Depth Elevation

Earthquake Activity

City Distance Mag. Time & Date
Minimum magnitude displayed is 2.5.

Coastal Water Temperatures

Place Temperature

Stations

Nearby Weather Stations

Station Location Temp. Windchill Dew Point Humidity Wind Precip. Elev Updated Type